sensor_id;sensor_type;location;lat;lon;timestamp;pressure;altitude;pressure_sealevel;temperature;humidity
42705;BME280;28342;42.594;23.414;2023-07-28T00:01:00;94628.91;;;14.26;62.74
42705;BME280;28342;42.594;23.414;2023-07-28T00:03:25;94615.44;;;14.01;63.55
42705;BME280;28342;42.594;23.414;2023-07-28T00:05:51;94627.59;;;13.90;63.52
42705;BME280;28342;42.594;23.414;2023-07-28T00:08:16;94633.97;;;13.98;64.95
42705;BME280;28342;42.594;23.414;2023-07-28T00:10:42;94625.13;;;13.85;65.04
42705;BME280;28342;42.594;23.414;2023-07-28T00:13:08;94621.47;;;13.90;64.88
42705;BME280;28342;42.594;23.414;2023-07-28T00:15:34;94631.44;;;14.01;65.87
42705;BME280;28342;42.594;23.414;2023-07-28T00:17:59;94634.34;;;14.09;64.53
42705;BME280;28342;42.594;23.414;2023-07-28T00:20:28;94633.13;;;13.85;65.27
42705;BME280;28342;42.594;23.414;2023-07-28T00:22:53;94628.53;;;13.94;65.10
42705;BME280;28342;42.594;23.414;2023-07-28T00:25:19;94617.84;;;13.94;64.50
42705;BME280;28342;42.594;23.414;2023-07-28T00:27:44;94602.94;;;13.72;63.16
42705;BME280;28342;42.594;23.414;2023-07-28T00:30:10;94631.75;;;13.79;63.37
42705;BME280;28342;42.594;23.414;2023-07-28T00:32:36;94613.56;;;13.81;64.20
42705;BME280;28342;42.594;23.414;2023-07-28T00:35:02;94626.03;;;13.89;64.55
42705;BME280;28342;42.594;23.414;2023-07-28T00:37:28;94613.66;;;13.64;63.75
42705;BME280;28342;42.594;23.414;2023-07-28T00:39:53;94619.25;;;13.71;64.16
42705;BME280;28342;42.594;23.414;2023-07-28T00:42:19;94630.66;;;13.80;64.17
42705;BME280;28342;42.594;23.414;2023-07-28T00:44:44;94624.84;;;13.78;64.10
42705;BME280;28342;42.594;23.414;2023-07-28T00:47:09;94623.28;;;13.77;64.05
42705;BME280;28342;42.594;23.414;2023-07-28T00:49:35;94621.47;;;13.69;64.52
42705;BME280;28342;42.594;23.414;2023-07-28T00:52:01;94635.56;;;13.40;63.74
42705;BME280;28342;42.594;23.414;2023-07-28T00:54:26;94628.81;;;13.42;64.37
42705;BME280;28342;42.594;23.414;2023-07-28T00:56:52;94622.91;;;13.37;65.10
42705;BME280;28342;42.594;23.414;2023-07-28T00:59:18;94630.31;;;13.14;66.92
42705;BME280;28342;42.594;23.414;2023-07-28T01:01:43;94619.66;;;13.23;66.62
42705;BME280;28342;42.594;23.414;2023-07-28T01:04:09;94616.03;;;13.27;67.17
42705;BME280;28342;42.594;23.414;2023-07-28T01:09:13;94623.22;;;13.35;66.91
42705;BME280;28342;42.594;23.414;2023-07-28T01:11:58;94628.16;;;13.45;66.02
42705;BME280;28342;42.594;23.414;2023-07-28T01:14:25;94610.84;;;13.31;67.02
42705;BME280;28342;42.594;23.414;2023-07-28T01:16:51;94622.44;;;13.35;67.71
42705;BME280;28342;42.594;23.414;2023-07-28T01:19:18;94609.72;;;13.40;67.21
42705;BME280;28342;42.594;23.414;2023-07-28T01:21:48;94618.66;;;13.36;67.32
42705;BME280;28342;42.594;23.414;2023-07-28T01:24:33;94622.16;;;13.28;67.31
42705;BME280;28342;42.594;23.414;2023-07-28T01:27:04;94608.09;;;13.19;67.46
42705;BME280;28342;42.594;23.414;2023-07-28T01:29:29;94611.16;;;13.29;67.27
42705;BME280;28342;42.594;23.414;2023-07-28T01:31:59;94614.28;;;13.31;67.72
42705;BME280;28342;42.594;23.414;2023-07-28T01:34:25;94623.84;;;13.32;68.33
42705;BME280;28342;42.594;23.414;2023-07-28T01:36:50;94618.66;;;13.36;68.30
42705;BME280;28342;42.594;23.414;2023-07-28T01:39:16;94614.78;;;13.33;67.15
42705;BME280;28342;42.594;23.414;2023-07-28T01:41:41;94615.91;;;13.24;67.61
42705;BME280;28342;42.594;23.414;2023-07-28T01:44:09;94598.09;;;12.98;68.83
42705;BME280;28342;42.594;23.414;2023-07-28T01:46:35;94587.19;;;12.91;69.30
42705;BME280;28342;42.594;23.414;2023-07-28T01:49:00;94598.09;;;12.98;69.10
42705;BME280;28342;42.594;23.414;2023-07-28T01:51:25;94603.28;;;13.03;68.37
42705;BME280;28342;42.594;23.414;2023-07-28T01:53:51;94601.56;;;12.99;68.17
42705;BME280;28342;42.594;23.414;2023-07-28T01:56:16;94619.84;;;13.09;68.19
42705;BME280;28342;42.594;23.414;2023-07-28T01:58:42;94615.56;;;13.16;67.74
42705;BME280;28342;42.594;23.414;2023-07-28T02:01:07;94619.06;;;13.08;69.17
42705;BME280;28342;42.594;23.414;2023-07-28T02:03:32;94610.19;;;12.96;68.96
42705;BME280;28342;42.594;23.414;2023-07-28T02:06:01;94601.50;;;12.69;69.17
42705;BME280;28342;42.594;23.414;2023-07-28T02:08:26;94595.06;;;12.79;68.50
42705;BME280;28342;42.594;23.414;2023-07-28T02:10:53;94609.16;;;12.79;69.26
42705;BME280;28342;42.594;23.414;2023-07-28T02:13:19;94611.03;;;12.79;70.44
42705;BME280;28342;42.594;23.414;2023-07-28T02:15:44;94620.38;;;12.85;70.09
42705;BME280;28342;42.594;23.414;2023-07-28T02:18:09;94610.63;;;12.51;70.79
42705;BME280;28342;42.594;23.414;2023-07-28T02:20:35;94617.47;;;12.69;70.25
42705;BME280;28342;42.594;23.414;2023-07-28T02:23:01;94619.97;;;12.74;69.84
42705;BME280;28342;42.594;23.414;2023-07-28T02:25:27;94625.63;;;12.64;69.03
42705;BME280;28342;42.594;23.414;2023-07-28T02:27:52;94624.06;;;12.54;69.21
42705;BME280;28342;42.594;23.414;2023-07-28T02:30:18;94626.75;;;12.46;69.69
42705;BME280;28342;42.594;23.414;2023-07-28T02:32:43;94618.31;;;12.44;69.67
42705;BME280;28342;42.594;23.414;2023-07-28T02:35:09;94624.72;;;12.43;70.86
42705;BME280;28342;42.594;23.414;2023-07-28T02:37:35;94621.09;;;12.39;70.57
42705;BME280;28342;42.594;23.414;2023-07-28T02:40:01;94626.75;;;12.46;70.69
42705;BME280;28342;42.594;23.414;2023-07-28T02:42:26;94619.72;;;12.33;71.03
42705;BME280;28342;42.594;23.414;2023-07-28T02:44:52;94615.50;;;12.14;71.19
42705;BME280;28342;42.594;23.414;2023-07-28T02:47:17;94611.28;;;12.13;70.61
42705;BME280;28342;42.594;23.414;2023-07-28T02:49:43;94625.19;;;12.02;71.91
42705;BME280;28342;42.594;23.414;2023-07-28T02:52:08;94621.59;;;12.06;71.67
42705;BME280;28342;42.594;23.414;2023-07-28T02:54:34;94637.41;;;12.03;72.26
42705;BME280;28342;42.594;23.414;2023-07-28T02:56:59;94633.50;;;12.00;71.89
42705;BME280;28342;42.594;23.414;2023-07-28T02:59:25;94613.94;;;11.87;72.14
42705;BME280;28342;42.594;23.414;2023-07-28T03:01:50;94632.41;;;12.01;72.16
42705;BME280;28342;42.594;23.414;2023-07-28T03:04:18;94616.91;;;11.86;72.75
42705;BME280;28342;42.594;23.414;2023-07-28T03:06:45;94613.78;;;11.84;73.00
42705;BME280;28342;42.594;23.414;2023-07-28T03:09:10;94618.63;;;11.82;72.76
42705;BME280;28342;42.594;23.414;2023-07-28T03:11:36;94622.22;;;11.86;72.58
42705;BME280;28342;42.594;23.414;2023-07-28T03:14:02;94620.91;;;11.75;72.84
42705;BME280;28342;42.594;23.414;2023-07-28T03:16:27;94620.91;;;11.57;73.84
42705;BME280;28342;42.594;23.414;2023-07-28T03:18:53;94616.53;;;11.61;74.39
42705;BME280;28342;42.594;23.414;2023-07-28T03:21:18;94627.97;;;11.71;72.91
42705;BME280;28342;42.594;23.414;2023-07-28T03:23:44;94637.84;;;11.79;72.99
42705;BME280;28342;42.594;23.414;2023-07-28T03:26:09;94638.81;;;11.83;72.85
42705;BME280;28342;42.594;23.414;2023-07-28T03:28:35;94644.13;;;12.00;72.02
42705;BME280;28342;42.594;23.414;2023-07-28T03:31:00;94639.09;;;11.90;72.74
42705;BME280;28342;42.594;23.414;2023-07-28T03:33:26;94643.78;;;11.93;72.87
42705;BME280;28342;42.594;23.414;2023-07-28T03:35:51;94638.94;;;11.86;72.64
42705;BME280;28342;42.594;23.414;2023-07-28T03:38:17;94637.06;;;11.87;72.59
42705;BME280;28342;42.594;23.414;2023-07-28T03:40:43;94644.53;;;11.76;72.63
42705;BME280;28342;42.594;23.414;2023-07-28T03:43:09;94647.41;;;11.80;69.82
42705;BME280;28342;42.594;23.414;2023-07-28T03:45:34;94636.59;;;11.85;71.72
42705;BME280;28342;42.594;23.414;2023-07-28T03:48:00;94640.13;;;11.54;73.64
42705;BME280;28342;42.594;23.414;2023-07-28T03:50:25;94643.09;;;11.61;73.43
42705;BME280;28342;42.594;23.414;2023-07-28T03:52:51;94645.47;;;11.72;72.69
42705;BME280;28342;42.594;23.414;2023-07-28T03:55:17;94638.25;;;11.63;73.32
42705;BME280;28342;42.594;23.414;2023-07-28T03:57:42;94642.81;;;11.72;74.14
42705;BME280;28342;42.594;23.414;2023-07-28T04:00:08;94648.75;;;11.68;73.71
42705;BME280;28342;42.594;23.414;2023-07-28T04:02:34;94644.44;;;11.81;74.12
42705;BME280;28342;42.594;23.414;2023-07-28T04:04:59;94638.28;;;11.72;74.05
42705;BME280;28342;42.594;23.414;2023-07-28T04:07:25;94641.44;;;11.91;74.64
42705;BME280;28342;42.594;23.414;2023-07-28T04:09:50;94649.44;;;12.00;74.57
42705;BME280;28342;42.594;23.414;2023-07-28T04:12:15;94660.09;;;12.00;74.79
42705;BME280;28342;42.594;23.414;2023-07-28T04:14:41;94662.72;;;12.09;74.06
42705;BME280;28342;42.594;23.414;2023-07-28T04:17:06;94664.47;;;12.13;73.96
42705;BME280;28342;42.594;23.414;2023-07-28T04:19:32;94655.53;;;12.09;72.89
42705;BME280;28342;42.594;23.414;2023-07-28T04:21:59;94658.69;;;12.29;73.03
42705;BME280;28342;42.594;23.414;2023-07-28T04:24:25;94651.81;;;12.27;71.61
42705;BME280;28342;42.594;23.414;2023-07-28T04:26:50;94641.31;;;12.22;71.91
42705;BME280;28342;42.594;23.414;2023-07-28T04:29:16;94657.75;;;12.42;72.23
42705;BME280;28342;42.594;23.414;2023-07-28T04:31:41;94653.53;;;12.41;72.01
42705;BME280;28342;42.594;23.414;2023-07-28T04:34:07;94659.13;;;12.48;72.03
42705;BME280;28342;42.594;23.414;2023-07-28T04:36:32;94649.09;;;12.62;71.01
42705;BME280;28342;42.594;23.414;2023-07-28T04:38:58;94644.38;;;12.76;70.98
42705;BME280;28342;42.594;23.414;2023-07-28T04:41:23;94648.75;;;12.90;72.11
42705;BME280;28342;42.594;23.414;2023-07-28T04:43:49;94647.00;;;12.94;70.86
42705;BME280;28342;42.594;23.414;2023-07-28T04:46:14;94645.63;;;12.88;70.97
42705;BME280;28342;42.594;23.414;2023-07-28T04:48:40;94640.28;;;12.88;70.88
42705;BME280;28342;42.594;23.414;2023-07-28T04:51:05;94645.91;;;12.95;70.75
42705;BME280;28342;42.594;23.414;2023-07-28T04:53:31;94658.41;;;13.03;70.14
42705;BME280;28342;42.594;23.414;2023-07-28T04:56:03;94651.34;;;13.07;70.66
42705;BME280;28342;42.594;23.414;2023-07-28T04:58:30;94632.72;;;13.07;70.26
42705;BME280;28342;42.594;23.414;2023-07-28T05:00:55;94653.47;;;13.31;70.14
42705;BME280;28342;42.594;23.414;2023-07-28T05:03:21;94644.66;;;13.39;68.51
42705;BME280;28342;42.594;23.414;2023-07-28T05:05:46;94657.25;;;13.59;69.37
42705;BME280;28342;42.594;23.414;2023-07-28T05:08:12;94646.28;;;13.61;70.24
42705;BME280;28342;42.594;23.414;2023-07-28T05:10:41;94649.03;;;13.73;68.67
42705;BME280;28342;42.594;23.414;2023-07-28T05:13:06;94636.16;;;13.75;69.56
42705;BME280;28342;42.594;23.414;2023-07-28T05:15:32;94644.38;;;13.91;69.11
42705;BME280;28342;42.594;23.414;2023-07-28T05:17:59;94657.91;;;14.06;68.40
42705;BME280;28342;42.594;23.414;2023-07-28T05:20:25;94651.53;;;14.20;68.29
42705;BME280;28342;42.594;23.414;2023-07-28T05:22:50;94656.50;;;14.30;69.01
42705;BME280;28342;42.594;23.414;2023-07-28T05:25:16;94643.59;;;14.32;67.92
42705;BME280;28342;42.594;23.414;2023-07-28T05:27:41;94647.00;;;14.41;67.92
42705;BME280;28342;42.594;23.414;2023-07-28T05:30:07;94660.88;;;14.55;67.04
42705;BME280;28342;42.594;23.414;2023-07-28T05:32:33;94652.38;;;14.53;68.01
42705;BME280;28342;42.594;23.414;2023-07-28T05:34:58;94643.97;;;14.63;67.06
42705;BME280;28342;42.594;23.414;2023-07-28T05:37:24;94654.03;;;14.79;66.09
42705;BME280;28342;42.594;23.414;2023-07-28T05:39:49;94653.19;;;14.87;65.55
42705;BME280;28342;42.594;23.414;2023-07-28T05:42:17;94642.25;;;14.80;65.50
42705;BME280;28342;42.594;23.414;2023-07-28T05:44:43;94647.41;;;14.97;65.85
42705;BME280;28342;42.594;23.414;2023-07-28T05:47:08;94634.50;;;14.99;66.57
42705;BME280;28342;42.594;23.414;2023-07-28T05:49:34;94632.41;;;15.05;66.69
42705;BME280;28342;42.594;23.414;2023-07-28T05:52:01;94651.56;;;15.31;64.92
42705;BME280;28342;42.594;23.414;2023-07-28T05:54:27;94632.56;;;15.33;65.27
42705;BME280;28342;42.594;23.414;2023-07-28T05:56:52;94637.44;;;15.43;64.75
42705;BME280;28342;42.594;23.414;2023-07-28T05:59:17;94644.69;;;15.54;64.29
42705;BME280;28342;42.594;23.414;2023-07-28T06:01:44;94635.00;;;15.50;64.07
42705;BME280;28342;42.594;23.414;2023-07-28T06:04:10;94639.91;;;15.60;63.23
42705;BME280;28342;42.594;23.414;2023-07-28T06:06:35;94643.72;;;15.71;64.01
42705;BME280;28342;42.594;23.414;2023-07-28T06:09:01;94640.16;;;15.79;65.18
42705;BME280;28342;42.594;23.414;2023-07-28T06:11:26;94635.22;;;15.94;64.59
42705;BME280;28342;42.594;23.414;2023-07-28T06:13:52;94641.53;;;16.13;64.68
42705;BME280;28342;42.594;23.414;2023-07-28T06:16:19;94630.69;;;16.22;62.97
42705;BME280;28342;42.594;23.414;2023-07-28T06:18:46;94635.09;;;16.42;62.71
42705;BME280;28342;42.594;23.414;2023-07-28T06:21:11;94633.63;;;16.45;62.08
42705;BME280;28342;42.594;23.414;2023-07-28T06:23:37;94634.47;;;16.61;61.35
42705;BME280;28342;42.594;23.414;2023-07-28T06:29:31;94616.16;;;16.91;61.30
42705;BME280;28342;42.594;23.414;2023-07-28T06:34:41;94613.63;;;16.98;60.78
42705;BME280;28342;42.594;23.414;2023-07-28T06:37:08;94616.88;;;17.20;62.52
42705;BME280;28342;42.594;23.414;2023-07-28T06:39:39;94615.31;;;17.35;61.58
42705;BME280;28342;42.594;23.414;2023-07-28T06:42:04;94615.72;;;17.52;60.38
42705;BME280;28342;42.594;23.414;2023-07-28T06:44:31;94614.16;;;17.67;60.22
42705;BME280;28342;42.594;23.414;2023-07-28T06:46:56;94609.72;;;17.75;60.32
42705;BME280;28342;42.594;23.414;2023-07-28T06:49:22;94622.94;;;17.99;59.74
42705;BME280;28342;42.594;23.414;2023-07-28T06:51:48;94609.22;;;18.04;59.67
42705;BME280;28342;42.594;23.414;2023-07-28T06:54:16;94623.97;;;18.30;59.15
42705;BME280;28342;42.594;23.414;2023-07-28T06:56:43;94620.00;;;18.43;58.22
42705;BME280;28342;42.594;23.414;2023-07-28T07:02:10;94621.69;;;19.13;55.85
42705;BME280;28342;42.594;23.414;2023-07-28T07:04:36;94621.00;;;19.38;55.05
42705;BME280;28342;42.594;23.414;2023-07-28T07:07:03;94616.81;;;19.64;54.13
42705;BME280;28342;42.594;23.414;2023-07-28T07:09:36;94619.19;;;19.95;52.95
42705;BME280;28342;42.594;23.414;2023-07-28T07:12:03;94609.97;;;20.23;54.13
42705;BME280;28342;42.594;23.414;2023-07-28T07:14:40;94615.16;;;20.69;51.79
42705;BME280;28342;42.594;23.414;2023-07-28T07:17:06;94604.66;;;20.97;53.43
42705;BME280;28342;42.594;23.414;2023-07-28T07:19:32;94593.47;;;21.32;50.79
42705;BME280;28342;42.594;23.414;2023-07-28T07:21:57;94605.41;;;21.83;49.91
42705;BME280;28342;42.594;23.414;2023-07-28T07:24:23;94619.19;;;22.25;47.15
42705;BME280;28342;42.594;23.414;2023-07-28T07:26:48;94623.56;;;22.58;47.16
42705;BME280;28342;42.594;23.414;2023-07-28T07:29:14;94616.75;;;22.86;47.06
42705;BME280;28342;42.594;23.414;2023-07-28T07:31:40;94612.94;;;23.05;43.91
42705;BME280;28342;42.594;23.414;2023-07-28T07:34:07;94619.13;;;23.02;45.09
42705;BME280;28342;42.594;23.414;2023-07-28T07:37:37;94628.44;;;23.40;43.52
42705;BME280;28342;42.594;23.414;2023-07-28T07:40:06;94633.88;;;23.82;45.01
42705;BME280;28342;42.594;23.414;2023-07-28T07:42:50;94602.91;;;24.01;42.74
42705;BME280;28342;42.594;23.414;2023-07-28T07:45:27;94617.56;;;24.25;43.22
42705;BME280;28342;42.594;23.414;2023-07-28T07:48:00;94617.56;;;24.36;42.34
42705;BME280;28342;42.594;23.414;2023-07-28T07:51:13;94604.31;;;24.59;42.42
42705;BME280;28342;42.594;23.414;2023-07-28T07:54:00;94598.00;;;24.80;41.66
42705;BME280;28342;42.594;23.414;2023-07-28T07:56:29;94611.44;;;25.09;40.55
42705;BME280;28342;42.594;23.414;2023-07-28T07:58:55;94611.75;;;25.21;39.53
42705;BME280;28342;42.594;23.414;2023-07-28T08:01:34;94642.50;;;25.63;39.44
42705;BME280;28342;42.594;23.414;2023-07-28T08:04:01;94629.38;;;25.58;39.83
42705;BME280;28342;42.594;23.414;2023-07-28T08:06:28;94643.13;;;25.88;39.18
42705;BME280;28342;42.594;23.414;2023-07-28T08:08:55;94607.56;;;25.65;37.78
42705;BME280;28342;42.594;23.414;2023-07-28T08:11:25;94608.94;;;25.87;38.66
42705;BME280;28342;42.594;23.414;2023-07-28T08:13:50;94604.19;;;25.99;37.98
42705;BME280;28342;42.594;23.414;2023-07-28T08:16:17;94610.97;;;26.17;38.85
42705;BME280;28342;42.594;23.414;2023-07-28T08:18:43;94598.31;;;26.41;37.58
42705;BME280;28342;42.594;23.414;2023-07-28T08:21:08;94640.03;;;26.65;36.88
42705;BME280;28342;42.594;23.414;2023-07-28T08:23:35;94613.66;;;26.59;36.19
42705;BME280;28342;42.594;23.414;2023-07-28T08:26:01;94623.09;;;26.50;35.93
42705;BME280;28342;42.594;23.414;2023-07-28T08:28:26;94630.91;;;26.79;34.69
42705;BME280;28342;42.594;23.414;2023-07-28T08:30:55;94623.38;;;26.90;36.73
42705;BME280;28342;42.594;23.414;2023-07-28T08:33:24;94612.63;;;27.14;34.78
42705;BME280;28342;42.594;23.414;2023-07-28T08:35:50;94617.00;;;27.04;34.76
42705;BME280;28342;42.594;23.414;2023-07-28T08:38:17;94627.22;;;27.27;36.06
42705;BME280;28342;42.594;23.414;2023-07-28T08:40:44;94585.13;;;27.04;35.38
42705;BME280;28342;42.594;23.414;2023-07-28T08:43:10;94604.69;;;27.23;35.20
42705;BME280;28342;42.594;23.414;2023-07-28T08:45:36;94598.41;;;27.53;35.44
42705;BME280;28342;42.594;23.414;2023-07-28T08:48:01;94612.19;;;27.69;36.82
42705;BME280;28342;42.594;23.414;2023-07-28T08:50:28;94605.66;;;27.86;35.11
42705;BME280;28342;42.594;23.414;2023-07-28T08:52:53;94599.50;;;27.82;36.22
42705;BME280;28342;42.594;23.414;2023-07-28T08:55:19;94592.19;;;27.99;34.79
42705;BME280;28342;42.594;23.414;2023-07-28T08:57:46;94594.59;;;28.17;34.60
42705;BME280;28342;42.594;23.414;2023-07-28T09:00:14;94604.16;;;28.28;34.09
42705;BME280;28342;42.594;23.414;2023-07-28T09:02:41;94600.13;;;28.37;34.42
42705;BME280;28342;42.594;23.414;2023-07-28T09:05:16;94596.06;;;28.45;32.94
42705;BME280;28342;42.594;23.414;2023-07-28T09:07:42;94584.50;;;28.57;32.90
42705;BME280;28342;42.594;23.414;2023-07-28T09:10:08;94576.13;;;28.68;32.13
42705;BME280;28342;42.594;23.414;2023-07-28T09:12:34;94562.69;;;28.57;32.10
42705;BME280;28342;42.594;23.414;2023-07-28T09:14:59;94577.44;;;28.60;33.80
42705;BME280;28342;42.594;23.414;2023-07-28T09:17:25;94570.78;;;28.61;34.28
42705;BME280;28342;42.594;23.414;2023-07-28T09:19:52;94548.09;;;28.83;32.32
42705;BME280;28342;42.594;23.414;2023-07-28T09:22:18;94564.56;;;29.16;32.80
42705;BME280;28342;42.594;23.414;2023-07-28T09:24:44;94567.13;;;29.23;33.08
42705;BME280;28342;42.594;23.414;2023-07-28T09:27:22;94565.91;;;29.24;32.25
42705;BME280;28342;42.594;23.414;2023-07-28T09:29:49;94555.66;;;29.48;31.75
42705;BME280;28342;42.594;23.414;2023-07-28T09:32:15;94565.91;;;29.60;30.17
42705;BME280;28342;42.594;23.414;2023-07-28T09:34:41;94555.81;;;29.73;30.10
42705;BME280;28342;42.594;23.414;2023-07-28T09:37:09;94538.28;;;29.55;30.87
42705;BME280;28342;42.594;23.414;2023-07-28T09:39:36;94531.78;;;29.81;30.88
42705;BME280;28342;42.594;23.414;2023-07-28T09:42:01;94523.97;;;29.96;30.85
42705;BME280;28342;42.594;23.414;2023-07-28T09:44:27;94540.41;;;30.25;30.45
42705;BME280;28342;42.594;23.414;2023-07-28T09:46:54;94535.94;;;30.31;29.52
42705;BME280;28342;42.594;23.414;2023-07-28T09:49:37;94526.03;;;30.08;28.33
42705;BME280;28342;42.594;23.414;2023-07-28T09:52:07;94516.00;;;30.01;29.75
42705;BME280;28342;42.594;23.414;2023-07-28T09:54:40;94517.00;;;30.24;29.37
42705;BME280;28342;42.594;23.414;2023-07-28T09:57:11;94519.56;;;30.15;28.72
42705;BME280;28342;42.594;23.414;2023-07-28T09:59:39;94519.25;;;30.13;28.22
42705;BME280;28342;42.594;23.414;2023-07-28T10:02:05;94529.19;;;30.07;29.33
42705;BME280;28342;42.594;23.414;2023-07-28T10:04:32;94515.63;;;30.16;30.14
42705;BME280;28342;42.594;23.414;2023-07-28T10:06:57;94518.09;;;30.68;29.75
42705;BME280;28342;42.594;23.414;2023-07-28T10:09:26;94521.97;;;30.96;29.71
42705;BME280;28342;42.594;23.414;2023-07-28T10:11:52;94528.66;;;31.20;28.75
42705;BME280;28342;42.594;23.414;2023-07-28T10:14:37;94516.59;;;31.18;27.34
42705;BME280;28342;42.594;23.414;2023-07-28T10:17:04;94521.63;;;31.45;28.39
42705;BME280;28342;42.594;23.414;2023-07-28T10:19:34;94513.41;;;31.45;27.76
42705;BME280;28342;42.594;23.414;2023-07-28T10:22:02;94523.53;;;31.70;27.66
42705;BME280;28342;42.594;23.414;2023-07-28T10:24:53;94513.69;;;31.60;27.45
42705;BME280;28342;42.594;23.414;2023-07-28T10:27:43;94499.84;;;31.29;26.79
42705;BME280;28342;42.594;23.414;2023-07-28T10:30:12;94515.59;;;31.37;28.52
42705;BME280;28342;42.594;23.414;2023-07-28T10:32:39;94502.44;;;31.45;29.43
42705;BME280;28342;42.594;23.414;2023-07-28T10:35:09;94520.56;;;31.90;26.87
42705;BME280;28342;42.594;23.414;2023-07-28T10:37:36;94503.78;;;32.09;28.25
42705;BME280;28342;42.594;23.414;2023-07-28T10:40:31;94495.50;;;32.22;26.25
42705;BME280;28342;42.594;23.414;2023-07-28T10:42:57;94495.94;;;32.43;27.41
42705;BME280;28342;42.594;23.414;2023-07-28T10:45:26;94496.56;;;32.47;26.91
42705;BME280;28342;42.594;23.414;2023-07-28T10:47:53;94490.94;;;32.72;26.92
42705;BME280;28342;42.594;23.414;2023-07-28T10:50:21;94491.03;;;32.90;25.51
42705;BME280;28342;42.594;23.414;2023-07-28T10:52:46;94456.50;;;32.80;24.42
42705;BME280;28342;42.594;23.414;2023-07-28T10:55:20;94491.75;;;33.13;26.38
42705;BME280;28342;42.594;23.414;2023-07-28T10:57:47;94485.38;;;33.25;26.48
42705;BME280;28342;42.594;23.414;2023-07-28T11:00:17;94469.94;;;33.27;25.65
42705;BME280;28342;42.594;23.414;2023-07-28T11:02:48;94470.28;;;33.39;25.11
42705;BME280;28342;42.594;23.414;2023-07-28T11:05:23;94472.91;;;33.51;23.42
42705;BME280;28342;42.594;23.414;2023-07-28T11:07:51;94454.81;;;33.32;22.84
42705;BME280;28342;42.594;23.414;2023-07-28T11:10:18;94459.09;;;33.24;24.43
42705;BME280;28342;42.594;23.414;2023-07-28T11:12:46;94456.06;;;33.31;23.05
42705;BME280;28342;42.594;23.414;2023-07-28T11:15:13;94457.94;;;33.52;24.66
42705;BME280;28342;42.594;23.414;2023-07-28T11:17:47;94434.97;;;33.28;23.48
42705;BME280;28342;42.594;23.414;2023-07-28T11:20:16;94448.09;;;33.24;23.80
42705;BME280;28342;42.594;23.414;2023-07-28T11:22:52;94448.44;;;33.35;24.55
42705;BME280;28342;42.594;23.414;2023-07-28T11:25:18;94444.50;;;33.45;24.10
42705;BME280;28342;42.594;23.414;2023-07-28T11:27:44;94435.34;;;33.57;24.08
42705;BME280;28342;42.594;23.414;2023-07-28T11:30:14;94435.34;;;33.67;23.44
42705;BME280;28342;42.594;23.414;2023-07-28T11:32:42;94422.53;;;32.96;23.14
42705;BME280;28342;42.594;23.414;2023-07-28T11:35:10;94427.69;;;33.52;24.33
42705;BME280;28342;42.594;23.414;2023-07-28T11:37:38;94424.19;;;33.70;26.00
42705;BME280;28342;42.594;23.414;2023-07-28T11:40:06;94415.63;;;33.77;25.01
42705;BME280;28342;42.594;23.414;2023-07-28T11:42:55;94420.38;;;34.04;24.81
42705;BME280;28342;42.594;23.414;2023-07-28T11:45:21;94409.22;;;33.71;24.12
42705;BME280;28342;42.594;23.414;2023-07-28T11:48:04;94410.25;;;33.83;23.84
42705;BME280;28342;42.594;23.414;2023-07-28T11:50:38;94405.69;;;33.80;23.35
42705;BME280;28342;42.594;23.414;2023-07-28T11:53:05;94403.22;;;33.82;22.92
42705;BME280;28342;42.594;23.414;2023-07-28T11:55:31;94411.78;;;33.84;22.50
42705;BME280;28342;42.594;23.414;2023-07-28T11:57:58;94417.47;;;34.08;23.10
42705;BME280;28342;42.594;23.414;2023-07-28T12:00:36;94411.81;;;33.93;22.90
42705;BME280;28342;42.594;23.414;2023-07-28T12:03:06;94404.28;;;34.12;24.22
42705;BME280;28342;42.594;23.414;2023-07-28T12:05:35;94405.94;;;34.37;22.51
42705;BME280;28342;42.594;23.414;2023-07-28T12:08:01;94410.53;;;34.40;23.42
42705;BME280;28342;42.594;23.414;2023-07-28T12:10:28;94414.72;;;34.59;24.04
42705;BME280;28342;42.594;23.414;2023-07-28T12:12:55;94406.53;;;34.41;23.16
42705;BME280;28342;42.594;23.414;2023-07-28T12:15:26;94403.47;;;34.30;22.56
42705;BME280;28342;42.594;23.414;2023-07-28T12:18:11;94400.31;;;34.13;24.75
42705;BME280;28342;42.594;23.414;2023-07-28T12:20:49;94398.88;;;34.45;23.86
42705;BME280;28342;42.594;23.414;2023-07-28T12:23:33;94386.63;;;34.46;24.01
42705;BME280;28342;42.594;23.414;2023-07-28T12:26:06;94392.53;;;34.11;23.22
42705;BME280;28342;42.594;23.414;2023-07-28T12:28:32;94376.34;;;33.49;24.02
42705;BME280;28342;42.594;23.414;2023-07-28T12:31:01;94374.47;;;33.19;23.75
42705;BME280;28342;42.594;23.414;2023-07-28T12:33:30;94357.09;;;32.63;24.19
42705;BME280;28342;42.594;23.414;2023-07-28T13:09:36;94346.38;;;32.96;24.21
42705;BME280;28342;42.594;23.414;2023-07-28T13:45:16;94310.91;;;32.80;25.70
42705;BME280;28342;42.594;23.414;2023-07-28T14:09:04;94285.88;;;32.78;25.50
42705;BME280;28342;42.594;23.414;2023-07-28T15:40:59;94258.25;;;30.48;30.11
42705;BME280;28342;42.594;23.414;2023-07-28T18:08:37;94342.75;;;25.12;40.83
42705;BME280;28342;42.594;23.414;2023-07-28T19:26:37;94409.59;;;22.46;46.95
42705;BME280;28342;42.594;23.414;2023-07-28T19:52:21;94397.91;;;21.95;51.05
42705;BME280;28342;42.594;23.414;2023-07-28T20:08:26;94422.34;;;21.40;49.17
42705;BME280;28342;42.594;23.414;2023-07-28T20:11:56;94423.88;;;21.34;50.00
42705;BME280;28342;42.594;23.414;2023-07-28T20:56:12;94459.69;;;20.06;51.90
42705;BME280;28342;42.594;23.414;2023-07-28T20:59:00;94451.31;;;20.11;51.83
42705;BME280;28342;42.594;23.414;2023-07-28T21:01:30;94429.59;;;19.96;52.64
42705;BME280;28342;42.594;23.414;2023-07-28T21:04:02;94434.41;;;19.80;52.75